createdAt,value
2023-11-24T00:02:18.867Z,9.45
2023-11-24T00:04:46.234Z,10.13
2023-11-24T00:07:13.509Z,8.18
2023-11-24T00:09:41.197Z,10.73
2023-11-24T00:12:08.830Z,11.82
2023-11-24T00:14:36.158Z,14.02
2023-11-24T00:17:03.631Z,11.15
2023-11-24T00:19:30.933Z,10.55
2023-11-24T00:21:58.238Z,11.85
2023-11-24T00:24:25.950Z,10.15
2023-11-24T00:26:53.332Z,10.98
2023-11-24T00:29:23.051Z,13.48
2023-11-24T00:31:50.303Z,11.02
2023-11-24T00:34:17.786Z,12.50
2023-11-24T00:36:46.505Z,13.77
2023-11-24T00:39:14.752Z,9.25
2023-11-24T00:41:42.263Z,14.07
2023-11-24T00:44:10.370Z,15.40
2023-11-24T00:46:37.769Z,12.65
2023-11-24T00:49:05.282Z,11.25
2023-11-24T00:51:32.743Z,15.13
2023-11-24T00:53:59.951Z,9.43
2023-11-24T00:56:27.198Z,9.65
2023-11-24T00:58:54.677Z,11.35
2023-11-24T01:01:21.972Z,9.95
2023-11-24T01:03:49.305Z,12.07
2023-11-24T01:06:16.667Z,12.70
2023-11-24T01:08:43.871Z,8.80
2023-11-24T01:11:12.309Z,8.10
2023-11-24T01:13:41.211Z,13.00
2023-11-24T01:16:09.456Z,10.77
2023-11-24T01:18:39.457Z,10.52
2023-11-24T01:21:08.584Z,15.48
2023-11-24T01:23:36.920Z,7.85
2023-11-24T01:26:04.971Z,12.50
2023-11-24T01:28:32.369Z,10.50
2023-11-24T01:30:59.618Z,8.80
2023-11-24T01:33:27.390Z,11.68
2023-11-24T01:35:57.314Z,6.80
2023-11-24T01:38:25.106Z,12.68
2023-11-24T01:40:53.021Z,8.98
2023-11-24T01:43:20.460Z,9.75
2023-11-24T01:45:48.361Z,10.48
2023-11-24T01:48:18.590Z,12.38
2023-11-24T01:50:46.131Z,11.63
2023-11-24T01:53:15.340Z,8.70
2023-11-24T01:55:43.327Z,10.07
2023-11-24T01:58:10.807Z,10.38
2023-11-24T02:00:40.018Z,9.18
2023-11-24T02:03:07.537Z,11.35
2023-11-24T02:05:37.933Z,10.52
2023-11-24T02:10:35.470Z,8.55
2023-11-24T02:13:02.789Z,9.82
2023-11-24T02:15:31.315Z,11.32
2023-11-24T02:17:58.631Z,10.27
2023-11-24T02:20:27.673Z,12.38
2023-11-24T02:22:54.966Z,13.32
2023-11-24T02:25:22.494Z,10.38
2023-11-24T02:27:49.743Z,10.43
2023-11-24T02:30:17.481Z,10.60
2023-11-24T02:32:45.777Z,10.32
2023-11-24T02:35:13.964Z,16.20
2023-11-24T02:37:41.320Z,12.35
2023-11-24T02:40:09.892Z,11.88
2023-11-24T02:42:37.190Z,14.27
2023-11-24T02:45:06.261Z,9.73
2023-11-24T02:47:33.947Z,11.63
2023-11-24T02:50:01.277Z,11.10
2023-11-24T02:52:28.603Z,8.43
2023-11-24T02:54:55.962Z,4.47
2023-11-24T02:57:23.384Z,8.43
2023-11-24T02:59:50.651Z,7.32
2023-11-24T03:02:18.135Z,5.43
2023-11-24T03:04:45.464Z,5.85
2023-11-24T03:07:13.245Z,5.35
2023-11-24T03:09:40.688Z,7.88
2023-11-24T03:12:09.505Z,9.10
2023-11-24T03:14:36.732Z,8.00
2023-11-24T03:17:05.270Z,9.80
2023-11-24T03:19:33.153Z,7.47
2023-11-24T03:22:00.487Z,8.57
2023-11-24T03:24:27.775Z,11.93
2023-11-24T03:26:55.142Z,11.07
2023-11-24T03:29:22.477Z,10.68
2023-11-24T03:31:49.846Z,10.90
2023-11-24T03:34:19.147Z,9.23
2023-11-24T03:36:46.768Z,10.10
2023-11-24T03:39:15.713Z,14.63
2023-11-24T03:41:43.132Z,9.65
2023-11-24T03:44:10.812Z,12.48
2023-11-24T03:46:38.274Z,9.43
2023-11-24T03:49:05.802Z,10.18
2023-11-24T03:51:34.283Z,10.82
2023-11-24T03:54:01.648Z,11.13
2023-11-24T03:56:28.936Z,8.77
2023-11-24T03:58:56.201Z,10.88
2023-11-24T04:01:23.577Z,10.25
2023-11-24T04:03:55.803Z,14.25
2023-11-24T04:06:23.177Z,8.90
2023-11-24T04:08:50.740Z,11.77
2023-11-24T04:11:18.052Z,13.82
2023-11-24T04:13:45.714Z,14.15
2023-11-24T04:16:14.892Z,13.68
2023-11-24T04:18:42.807Z,12.77
2023-11-24T04:21:10.168Z,11.35
2023-11-24T04:23:37.796Z,14.55
2023-11-24T04:26:05.287Z,14.55
2023-11-24T04:28:32.572Z,14.38
2023-11-24T04:31:00.228Z,18.15
2023-11-24T04:33:27.506Z,13.52
2023-11-24T04:35:56.718Z,13.77
2023-11-24T04:38:23.980Z,13.85
2023-11-24T04:40:51.303Z,13.25
2023-11-24T04:43:20.130Z,11.13
2023-11-24T04:45:47.557Z,16.48
2023-11-24T04:48:16.757Z,18.40
2023-11-24T04:50:44.010Z,15.02
2023-11-24T04:53:11.314Z,12.55
2023-11-24T04:55:38.617Z,10.63
2023-11-24T04:58:05.960Z,15.45
2023-11-24T05:00:33.256Z,14.27
2023-11-24T05:03:00.645Z,13.93
2023-11-24T05:05:27.928Z,9.48
2023-11-24T05:07:55.150Z,17.17
2023-11-24T05:10:22.445Z,13.50
2023-11-24T05:12:49.793Z,13.68
2023-11-24T05:15:18.063Z,14.52
2023-11-24T05:17:45.311Z,10.07
2023-11-24T05:20:14.017Z,13.30
2023-11-24T05:22:41.501Z,10.48
2023-11-24T05:25:09.319Z,13.38
2023-11-24T05:27:36.822Z,10.50
2023-11-24T05:30:08.976Z,14.32
2023-11-24T05:32:36.605Z,10.73
2023-11-24T05:35:04.334Z,10.93
2023-11-24T05:37:31.697Z,13.25
2023-11-24T05:39:59.032Z,16.98
2023-11-24T05:42:27.005Z,18.65
2023-11-24T05:44:54.295Z,13.50
2023-11-24T05:47:21.821Z,16.15
2023-11-24T05:49:49.739Z,18.50
2023-11-24T05:52:17.187Z,16.13
2023-11-24T05:54:44.633Z,13.95
2023-11-24T05:57:12.008Z,16.40
2023-11-24T05:59:40.615Z,13.07
2023-11-24T06:02:08.250Z,19.13
2023-11-24T06:04:35.842Z,13.23
2023-11-24T06:07:03.290Z,12.10
2023-11-24T06:09:31.324Z,12.93
2023-11-24T06:11:58.702Z,20.10
2023-11-24T06:14:26.258Z,15.68
2023-11-24T06:16:53.663Z,15.50
2023-11-24T06:19:21.043Z,15.68
2023-11-24T06:21:48.491Z,17.95
2023-11-24T06:24:16.063Z,14.90
2023-11-24T06:26:43.327Z,15.43
2023-11-24T06:29:10.781Z,17.88
2023-11-24T06:31:38.223Z,14.88
2023-11-24T06:34:05.691Z,14.65
2023-11-24T06:36:35.910Z,14.00
2023-11-24T06:39:12.759Z,16.17
2023-11-24T06:41:40.055Z,12.75
2023-11-24T06:44:07.625Z,16.23
2023-11-24T06:46:38.191Z,14.88
2023-11-24T06:49:07.792Z,15.98
2023-11-24T06:51:35.134Z,13.50
2023-11-24T06:54:02.460Z,15.88
2023-11-24T06:56:30.874Z,9.15
2023-11-24T06:58:58.184Z,10.32
2023-11-24T07:01:33.426Z,7.50
2023-11-24T07:04:01.802Z,11.82
2023-11-24T07:06:29.491Z,8.52
2023-11-24T07:08:56.756Z,7.85
2023-11-24T07:11:24.362Z,9.02
2023-11-24T07:13:52.798Z,8.68
2023-11-24T07:16:20.314Z,6.78
2023-11-24T07:18:47.715Z,5.80
2023-11-24T07:21:17.090Z,10.80
2023-11-24T07:23:44.385Z,12.03
2023-11-24T07:26:17.809Z,9.85
2023-11-24T07:28:45.610Z,9.13
2023-11-24T07:31:18.410Z,10.77
2023-11-24T07:33:50.760Z,11.23
2023-11-24T07:36:20.514Z,11.18
2023-11-24T07:38:48.912Z,9.95
2023-11-24T07:41:17.260Z,12.05
2023-11-24T07:43:44.577Z,8.55
2023-11-24T07:46:12.938Z,10.90
2023-11-24T07:48:41.529Z,8.57
2023-11-24T07:51:08.952Z,7.38
2023-11-24T07:53:36.371Z,8.18
2023-11-24T07:56:05.532Z,10.25
2023-11-24T07:58:32.944Z,9.23
2023-11-24T08:01:01.867Z,10.55
2023-11-24T08:03:31.001Z,10.55
2023-11-24T08:05:58.418Z,10.43
2023-11-24T08:08:25.696Z,17.17
2023-11-24T08:10:53.023Z,10.80
2023-11-24T08:13:20.809Z,12.02
2023-11-24T08:15:48.416Z,9.20
2023-11-24T08:18:16.337Z,10.45
2023-11-24T08:20:43.867Z,10.43
2023-11-24T08:23:15.174Z,10.90
2023-11-24T08:25:42.827Z,14.73
2023-11-24T08:28:12.558Z,16.52
2023-11-24T08:30:40.000Z,18.58
2023-11-24T08:33:07.471Z,23.42
2023-11-24T08:35:34.846Z,19.40
2023-11-24T08:38:05.135Z,20.42
2023-11-24T08:42:59.604Z,53.05
2023-11-24T08:45:27.629Z,25.55
2023-11-24T08:47:55.087Z,16.40
2023-11-24T08:50:22.509Z,21.05
2023-11-24T08:52:49.829Z,11.68
2023-11-24T08:55:18.166Z,12.57
2023-11-24T08:57:45.908Z,14.93
2023-11-24T09:00:15.868Z,9.63
2023-11-24T09:02:43.361Z,12.63
2023-11-24T09:05:11.246Z,13.75
2023-11-24T09:07:38.697Z,11.50
2023-11-24T09:10:10.185Z,11.02
2023-11-24T09:12:37.758Z,18.60
2023-11-24T09:15:08.701Z,13.25
2023-11-24T09:17:36.091Z,15.60
2023-11-24T09:20:06.757Z,22.00
2023-11-24T09:22:34.829Z,13.05
2023-11-24T09:25:03.876Z,9.20
2023-11-24T09:27:35.776Z,9.57
2023-11-24T09:30:05.719Z,15.00
2023-11-24T09:32:36.575Z,9.48
2023-11-24T09:35:07.392Z,11.43
2023-11-24T09:37:34.995Z,12.73
2023-11-24T09:40:05.767Z,10.35
2023-11-24T09:42:41.341Z,9.98
2023-11-24T09:45:16.300Z,7.15
2023-11-24T09:47:50.768Z,12.07
2023-11-24T09:50:27.628Z,7.22
2023-11-24T09:52:57.528Z,8.80
2023-11-24T09:55:27.509Z,13.45
2023-11-24T09:57:57.873Z,10.35
2023-11-24T10:00:27.783Z,11.73
2023-11-24T10:03:00.343Z,7.38
2023-11-24T10:05:27.883Z,9.85
2023-11-24T10:07:56.187Z,8.85
2023-11-24T10:10:28.464Z,9.57
2023-11-24T10:13:01.503Z,5.95
2023-11-24T10:15:29.564Z,9.15
2023-11-24T10:17:56.791Z,9.75
2023-11-24T10:20:24.282Z,13.60
2023-11-24T10:22:51.740Z,13.40
2023-11-24T10:25:23.464Z,8.98
2023-11-24T10:27:57.688Z,9.13
2023-11-24T10:30:25.018Z,9.88
2023-11-24T10:32:53.046Z,10.73
2023-11-24T10:35:20.498Z,8.77
2023-11-24T10:37:49.816Z,8.68
2023-11-24T10:40:19.394Z,9.98
2023-11-24T10:42:49.927Z,9.52
2023-11-24T10:45:22.299Z,8.00
2023-11-24T10:48:15.782Z,10.93
2023-11-24T10:50:48.449Z,9.73
2023-11-24T10:53:33.843Z,12.50
2023-11-24T10:56:04.908Z,11.23
2023-11-24T10:58:34.538Z,10.20
2023-11-24T11:01:04.048Z,13.48
2023-11-24T11:03:34.365Z,11.48
2023-11-24T11:08:46.469Z,12.77
2023-11-24T11:11:31.906Z,12.05
2023-11-24T11:14:00.495Z,41.05
2023-11-24T11:16:29.327Z,13.95
2023-11-24T11:18:56.606Z,11.98
2023-11-24T11:21:23.881Z,10.00
2023-11-24T11:24:06.191Z,9.18
2023-11-24T11:26:49.416Z,11.68
2023-11-24T11:29:21.529Z,9.65
2023-11-24T11:31:51.761Z,9.13
2023-11-24T11:34:20.992Z,10.25
2023-11-24T11:37:06.288Z,9.55
2023-11-24T11:39:59.439Z,13.63
2023-11-24T11:42:54.541Z,9.05
2023-11-24T11:45:31.703Z,7.97
2023-11-24T11:48:01.674Z,10.30
2023-11-24T11:50:29.715Z,11.85
2023-11-24T11:53:02.049Z,11.88
2023-11-24T11:55:32.432Z,11.05
2023-11-24T11:58:01.957Z,8.60
2023-11-24T12:00:31.155Z,13.88
2023-11-24T12:02:59.680Z,8.52
2023-11-24T12:05:28.016Z,11.40
2023-11-24T12:07:57.220Z,13.23
2023-11-24T12:10:30.849Z,11.30
2023-11-24T12:13:00.100Z,10.52
2023-11-24T12:15:27.368Z,8.13
2023-11-24T12:17:57.544Z,10.68
2023-11-24T12:22:54.046Z,9.10
2023-11-24T12:25:22.927Z,12.18
2023-11-24T12:27:50.735Z,9.20
2023-11-24T12:30:20.794Z,10.52
2023-11-24T12:32:48.114Z,10.27
2023-11-24T12:35:16.254Z,8.27
2023-11-24T12:37:47.947Z,9.02
2023-11-24T12:40:17.494Z,9.32
2023-11-24T12:42:47.692Z,9.10
2023-11-24T12:47:42.972Z,9.18
2023-11-24T12:50:16.454Z,13.57
2023-11-24T12:52:46.655Z,8.77
2023-11-24T12:57:45.645Z,6.97
2023-11-24T13:00:17.955Z,8.15
2023-11-24T13:02:46.545Z,8.07
2023-11-24T13:05:15.026Z,9.27
2023-11-24T13:07:42.971Z,9.20
2023-11-24T13:10:13.935Z,9.55
2023-11-24T13:12:42.848Z,9.70
2023-11-24T13:15:16.548Z,8.38
2023-11-24T13:17:44.455Z,12.52
2023-11-24T13:20:12.594Z,8.75
2023-11-24T13:22:41.226Z,10.02
2023-11-24T13:25:11.926Z,10.57
2023-11-24T13:27:40.780Z,9.98
2023-11-24T13:30:13.413Z,8.27
2023-11-24T13:32:44.113Z,9.68
2023-11-24T13:35:17.401Z,12.35
2023-11-24T13:37:46.266Z,8.82
2023-11-24T13:40:13.963Z,6.63
2023-11-24T13:42:41.369Z,7.60
2023-11-24T13:45:09.135Z,10.88
2023-11-24T13:47:36.866Z,8.23
2023-11-24T13:50:06.084Z,10.75
2023-11-24T13:52:36.208Z,9.38
2023-11-24T13:55:04.228Z,10.13
2023-11-24T13:57:31.395Z,10.32
2023-11-24T13:59:58.659Z,8.88
2023-11-24T14:02:26.924Z,11.43
2023-11-24T14:04:55.955Z,12.50
2023-11-24T14:07:23.405Z,12.80
2023-11-24T14:09:50.642Z,11.77
2023-11-24T14:12:17.937Z,13.40
2023-11-24T14:14:45.225Z,7.43
2023-11-24T14:17:13.432Z,10.82
2023-11-24T14:19:40.777Z,10.65
2023-11-24T14:22:08.990Z,10.85
2023-11-24T14:24:36.305Z,15.30
2023-11-24T14:27:05.108Z,10.23
2023-11-24T14:29:33.085Z,12.63
2023-11-24T14:32:01.418Z,11.18
2023-11-24T14:34:28.785Z,10.90
2023-11-24T14:36:56.025Z,10.20
2023-11-24T14:39:33.129Z,11.07
2023-11-24T14:42:00.841Z,10.25
2023-11-24T14:44:28.614Z,10.60
2023-11-24T14:46:56.832Z,6.75
2023-11-24T14:49:24.269Z,15.00
2023-11-24T14:51:53.021Z,10.25
2023-11-24T14:54:22.401Z,16.75
2023-11-24T14:56:50.031Z,13.70
2023-11-24T14:59:18.448Z,15.55
2023-11-24T15:01:45.774Z,9.70
2023-11-24T15:04:20.353Z,14.35
2023-11-24T15:06:53.222Z,14.30
2023-11-24T15:09:20.763Z,12.63
2023-11-24T15:11:53.682Z,10.70
2023-11-24T15:14:33.213Z,10.82
2023-11-24T15:17:12.109Z,15.82
2023-11-24T15:19:40.725Z,14.60
2023-11-24T15:22:20.046Z,9.77
2023-11-24T15:24:54.560Z,10.25
2023-11-24T15:27:21.960Z,8.18
2023-11-24T15:29:50.202Z,11.40
2023-11-24T15:32:21.308Z,11.23
2023-11-24T15:34:48.523Z,8.98
2023-11-24T15:37:15.792Z,22.17
2023-11-24T15:39:44.485Z,11.20
2023-11-24T15:42:16.257Z,8.65
2023-11-24T15:44:45.320Z,8.63
2023-11-24T15:47:12.758Z,9.40
2023-11-24T15:49:43.594Z,11.43
2023-11-24T15:52:15.121Z,13.95
2023-11-24T15:54:43.568Z,11.50
2023-11-24T15:57:11.484Z,12.77
2023-11-24T15:59:44.148Z,8.68
2023-11-24T16:02:15.723Z,11.27
2023-11-24T16:04:46.754Z,14.10
2023-11-24T16:07:18.963Z,12.07
2023-11-24T16:09:47.141Z,12.55
2023-11-24T16:12:15.481Z,11.02
2023-11-24T16:14:45.119Z,14.32
2023-11-24T16:17:13.938Z,13.55
2023-11-24T16:19:41.562Z,11.45
2023-11-24T16:22:12.359Z,11.38
2023-11-24T16:24:41.439Z,9.73
2023-11-24T16:27:10.225Z,10.63
2023-11-24T16:29:37.413Z,9.95
2023-11-24T16:32:05.266Z,10.55
2023-11-24T16:34:34.297Z,18.40
2023-11-24T16:37:02.671Z,16.08
2023-11-24T16:39:31.897Z,10.68
2023-11-24T16:42:01.035Z,12.77
2023-11-24T16:44:28.272Z,12.60
2023-11-24T16:47:03.398Z,11.75
2023-11-24T16:49:31.294Z,11.85
2023-11-24T16:51:59.151Z,13.13
2023-11-24T16:54:26.628Z,8.20
2023-11-24T16:56:53.838Z,8.00
2023-11-24T16:59:22.139Z,7.70
2023-11-24T17:01:51.368Z,6.82
2023-11-24T17:04:19.262Z,9.60
2023-11-24T17:06:51.497Z,7.97
2023-11-24T17:09:20.340Z,8.55
2023-11-24T17:11:47.783Z,7.45
2023-11-24T17:14:19.668Z,12.18
2023-11-24T17:16:47.074Z,7.35
2023-11-24T17:19:15.830Z,8.98
2023-11-24T17:21:43.383Z,6.68
2023-11-24T17:24:11.081Z,6.28
2023-11-24T17:26:39.458Z,8.55
2023-11-24T17:29:12.400Z,6.03
2023-11-24T17:31:41.586Z,6.05
2023-11-24T17:34:09.018Z,4.38
2023-11-24T17:36:37.056Z,4.68
2023-11-24T17:39:05.352Z,7.53
2023-11-24T17:41:34.259Z,7.47
2023-11-24T17:44:02.787Z,3.85
2023-11-24T17:46:30.258Z,4.72
2023-11-24T17:48:57.515Z,4.82
2023-11-24T17:51:27.526Z,4.05
2023-11-24T17:53:55.194Z,7.40
2023-11-24T17:56:22.509Z,4.43
2023-11-24T17:58:49.756Z,5.03
2023-11-24T18:01:18.057Z,5.00
2023-11-24T18:03:45.349Z,4.00
2023-11-24T18:06:12.933Z,4.25
2023-11-24T18:08:40.239Z,3.83
2023-11-24T18:11:07.702Z,4.72
2023-11-24T18:13:35.108Z,4.25
2023-11-24T18:16:02.970Z,7.07
2023-11-24T18:18:30.316Z,4.60
2023-11-24T18:20:57.549Z,6.50
2023-11-24T18:23:24.653Z,5.90
2023-11-24T18:25:51.955Z,9.90
2023-11-24T18:28:19.247Z,8.40
2023-11-24T18:30:46.580Z,7.65
2023-11-24T18:33:14.172Z,7.22
2023-11-24T18:35:41.421Z,9.23
2023-11-24T18:38:09.833Z,8.68
2023-11-24T18:40:37.192Z,7.07
2023-11-24T18:43:05.911Z,7.20
2023-11-24T18:45:33.876Z,13.02
2023-11-24T18:48:01.491Z,9.43
2023-11-24T18:50:28.981Z,8.80
2023-11-24T18:52:56.146Z,9.60
2023-11-24T18:55:23.435Z,11.32
2023-11-24T18:57:53.101Z,8.65
2023-11-24T19:00:21.004Z,16.60
2023-11-24T19:02:50.790Z,12.98
2023-11-24T19:05:19.757Z,12.55
2023-11-24T19:07:47.070Z,14.52
2023-11-24T19:10:19.083Z,12.93
2023-11-24T19:12:49.995Z,8.63
2023-11-24T19:15:17.349Z,12.30
2023-11-24T19:17:44.688Z,12.75
2023-11-24T19:20:12.341Z,11.05
2023-11-24T19:22:39.568Z,10.27
2023-11-24T19:25:07.233Z,14.80
2023-11-24T19:27:35.163Z,10.25
2023-11-24T19:30:02.759Z,11.00
2023-11-24T19:32:30.093Z,9.75
2023-11-24T19:34:57.402Z,13.98
2023-11-24T19:37:26.040Z,14.68
2023-11-24T19:39:53.455Z,7.10
2023-11-24T19:42:22.602Z,16.25
2023-11-24T19:44:50.179Z,16.17
2023-11-24T19:47:17.427Z,10.45
2023-11-24T19:49:47.307Z,18.63
2023-11-24T19:52:15.340Z,9.20
2023-11-24T19:54:43.656Z,11.70
2023-11-24T19:57:11.026Z,16.92
2023-11-24T19:59:38.325Z,10.77
2023-11-24T20:02:06.509Z,9.13
2023-11-24T20:04:34.317Z,5.95
2023-11-24T20:07:01.629Z,7.18
2023-11-24T20:09:28.942Z,4.70
2023-11-24T20:11:56.297Z,3.15
2023-11-24T20:14:23.562Z,5.30
2023-11-24T20:16:51.743Z,3.85
2023-11-24T20:19:19.259Z,1.73
2023-11-24T20:21:46.830Z,2.28
2023-11-24T20:24:14.167Z,4.80
2023-11-24T20:26:41.678Z,2.53
2023-11-24T20:29:09.443Z,4.40
2023-11-24T20:31:37.298Z,2.67
2023-11-24T20:34:04.841Z,2.20
2023-11-24T20:36:34.854Z,3.63
2023-11-24T20:39:02.237Z,2.47
2023-11-24T20:41:31.965Z,2.83
2023-11-24T20:43:59.255Z,3.90
2023-11-24T20:46:26.744Z,3.80
2023-11-24T20:48:53.970Z,2.58
2023-11-24T20:53:49.090Z,2.85
2023-11-24T20:56:16.456Z,4.22
2023-11-24T20:58:43.738Z,3.17
2023-11-24T21:01:12.992Z,4.90
2023-11-24T21:03:40.472Z,6.03
2023-11-24T21:06:08.510Z,6.47
2023-11-24T21:08:35.993Z,4.25
2023-11-24T21:11:03.678Z,5.25
2023-11-24T21:13:31.220Z,5.85
2023-11-24T21:15:58.448Z,5.70
2023-11-24T21:18:28.708Z,5.65
2023-11-24T21:20:56.681Z,9.88
2023-11-24T21:23:24.896Z,6.05
2023-11-24T21:25:52.250Z,5.05
2023-11-24T21:28:21.148Z,5.22
2023-11-24T21:30:48.780Z,7.05
2023-11-24T21:33:16.159Z,6.00
2023-11-24T21:35:45.669Z,5.68
2023-11-24T21:38:18.841Z,5.95
2023-11-24T21:40:46.756Z,5.47
2023-11-24T21:43:14.434Z,6.78
2023-11-24T21:45:42.530Z,5.40
2023-11-24T21:48:13.779Z,6.80
2023-11-24T21:50:41.605Z,7.07
2023-11-24T21:53:08.901Z,7.57
2023-11-24T21:55:36.077Z,7.22
2023-11-24T21:58:03.378Z,5.90
2023-11-24T22:00:30.625Z,3.85
2023-11-24T22:02:57.964Z,5.80
2023-11-24T22:05:27.157Z,4.53
2023-11-24T22:07:54.379Z,5.00
2023-11-24T22:10:21.711Z,7.65
2023-11-24T22:12:49.399Z,3.97
2023-11-24T22:15:16.625Z,6.43
2023-11-24T22:17:44.225Z,5.22
2023-11-24T22:20:13.234Z,6.00
2023-11-24T22:22:40.838Z,4.28
2023-11-24T22:25:08.916Z,5.50
2023-11-24T22:27:36.327Z,4.60
2023-11-24T22:30:08.131Z,4.97
2023-11-24T22:32:36.733Z,6.43
2023-11-24T22:35:04.385Z,5.03
2023-11-24T22:37:33.534Z,6.30
2023-11-24T22:40:01.600Z,6.50
2023-11-24T22:42:29.085Z,4.97
2023-11-24T22:44:56.296Z,4.80
2023-11-24T22:47:23.572Z,4.25
2023-11-24T22:49:50.818Z,5.82
2023-11-24T22:52:18.137Z,4.28
2023-11-24T22:54:46.252Z,6.47
2023-11-24T22:57:13.535Z,6.22
2023-11-24T22:59:40.937Z,5.85
2023-11-24T23:02:08.918Z,4.97
2023-11-24T23:04:36.259Z,6.05
2023-11-24T23:07:03.946Z,7.53
2023-11-24T23:09:32.208Z,5.63
2023-11-24T23:11:59.501Z,7.20
2023-11-24T23:14:32.865Z,7.68
2023-11-24T23:17:01.689Z,6.03
2023-11-24T23:19:29.214Z,8.50
2023-11-24T23:21:56.448Z,6.07
2023-11-24T23:24:23.547Z,5.50
2023-11-24T23:26:50.819Z,6.05
2023-11-24T23:29:18.546Z,6.28
2023-11-24T23:31:46.166Z,7.40
2023-11-24T23:34:13.434Z,7.75
2023-11-24T23:36:40.786Z,6.03
2023-11-24T23:39:08.684Z,5.70
2023-11-24T23:41:35.874Z,6.13
2023-11-24T23:44:03.294Z,7.75
2023-11-24T23:46:31.966Z,7.38
2023-11-24T23:48:59.342Z,5.97
2023-11-24T23:51:26.608Z,6.88
2023-11-24T23:53:53.786Z,9.05
2023-11-24T23:56:21.638Z,6.75
2023-11-24T23:58:49.014Z,6.97
